createdAt,value
2022-12-13T00:00:57.369Z,99750.38
2022-12-13T00:03:23.971Z,99742.72
2022-12-13T00:05:50.552Z,99741.63
2022-12-13T00:08:17.331Z,99748.78
2022-12-13T00:10:43.942Z,99748.75
2022-12-13T00:13:10.525Z,99749.88
2022-12-13T00:15:37.124Z,99748.06
2022-12-13T00:18:03.794Z,99748.66
2022-12-13T00:20:30.365Z,99751.59
2022-12-13T00:22:56.947Z,99740.03
2022-12-13T00:25:23.644Z,99739.91
2022-12-13T00:27:50.343Z,99742.03
2022-12-13T00:30:16.965Z,99748.81
2022-12-13T00:32:43.560Z,99744.78
2022-12-13T00:35:10.170Z,99744.88
2022-12-13T00:37:36.814Z,99753.75
2022-12-13T00:40:03.819Z,99753.59
2022-12-13T00:42:30.403Z,99757.59
2022-12-13T00:44:57.051Z,99758.44
2022-12-13T00:47:23.829Z,99754.69
2022-12-13T00:49:50.450Z,99757.91
2022-12-13T00:52:17.038Z,99762.63
2022-12-13T00:54:43.635Z,99770.59
2022-12-13T00:57:10.195Z,99767.41
2022-12-13T00:59:36.810Z,99761.50
2022-12-13T01:02:04.092Z,99763.91
2022-12-13T01:04:30.732Z,99764.25
2022-12-13T01:06:57.389Z,99765.19
2022-12-13T01:09:26.399Z,99765.78
2022-12-13T01:12:05.995Z,99770.53
2022-12-13T01:14:35.531Z,99773.91
2022-12-13T01:17:02.303Z,99780.38
2022-12-13T01:19:29.075Z,99775.81
2022-12-13T01:21:56.785Z,99777.91
2022-12-13T01:24:23.417Z,99784.28
2022-12-13T01:26:50.594Z,99783.13
2022-12-13T01:29:18.828Z,99776.50
2022-12-13T01:31:45.418Z,99771.09
2022-12-13T01:34:14.098Z,99780.56
2022-12-13T01:36:42.619Z,99787.28
2022-12-13T01:39:15.372Z,99782.84
2022-12-13T01:41:43.888Z,99784.19
2022-12-13T01:44:48.139Z,99786.22
2022-12-13T01:47:20.438Z,99785.94
2022-12-13T01:49:47.615Z,99790.06
2022-12-13T01:52:15.339Z,99799.78
2022-12-13T01:54:47.231Z,99803.75
2022-12-13T01:57:19.972Z,99807.50
2022-12-13T01:59:47.366Z,99811.44
2022-12-13T02:02:15.239Z,99807.69
2022-12-13T02:04:50.825Z,99807.16
2022-12-13T02:07:23.593Z,99803.66
2022-12-13T02:09:57.304Z,99800.50
2022-12-13T02:12:31.083Z,99797.56
2022-12-13T02:15:12.210Z,99798.06
2022-12-13T02:17:44.976Z,99798.72
2022-12-13T02:20:22.145Z,99806.50
2022-12-13T02:23:32.563Z,99800.84
2022-12-13T02:26:17.914Z,99791.81
2022-12-13T02:28:59.741Z,99797.03
2022-12-13T02:31:44.764Z,99796.75
2022-12-13T02:34:24.378Z,99798.09
2022-12-13T02:37:06.038Z,99802.44
2022-12-13T02:39:54.070Z,99805.66
2022-12-13T02:42:35.170Z,99804.59
2022-12-13T02:45:17.332Z,99803.28
2022-12-13T02:47:49.337Z,99805.47
2022-12-13T02:50:16.013Z,99795.03
2022-12-13T02:52:43.996Z,99797.50
2022-12-13T02:55:15.021Z,99800.47
2022-12-13T02:57:43.845Z,99803.75
2022-12-13T03:00:29.370Z,99798.25
2022-12-13T03:03:11.253Z,99803.78
2022-12-13T03:06:12.308Z,99796.38
2022-12-13T03:09:03.288Z,99804.91
2022-12-13T03:11:39.660Z,99805.91
2022-12-13T03:14:09.369Z,99801.25
2022-12-13T03:16:42.109Z,99809.03
2022-12-13T03:19:10.976Z,99798.41
2022-12-13T03:21:47.695Z,99803.50
2022-12-13T03:24:20.902Z,99800.81
2022-12-13T03:26:49.652Z,99809.00
2022-12-13T03:29:23.887Z,99804.31
2022-12-13T03:31:52.538Z,99815.38
2022-12-13T03:34:22.999Z,99803.25
2022-12-13T03:36:52.042Z,99805.34
2022-12-13T03:39:19.899Z,99815.94
2022-12-13T03:41:46.940Z,99811.03
2022-12-13T03:44:13.622Z,99808.84
2022-12-13T03:46:40.455Z,99822.31
2022-12-13T03:49:07.088Z,99815.28
2022-12-13T03:51:33.834Z,99820.00
2022-12-13T03:54:00.407Z,99818.84
2022-12-13T03:56:26.999Z,99818.91
2022-12-13T03:58:53.714Z,99819.88
2022-12-13T04:01:20.431Z,99826.22
2022-12-13T04:03:47.556Z,99820.56
2022-12-13T04:06:22.481Z,99825.63
2022-12-13T04:08:51.865Z,99824.53
2022-12-13T04:11:19.401Z,99832.66
2022-12-13T04:13:45.993Z,99833.66
2022-12-13T04:16:12.638Z,99833.88
2022-12-13T04:18:39.285Z,99833.34
2022-12-13T04:21:06.050Z,99828.09
2022-12-13T04:23:32.716Z,99833.72
2022-12-13T04:26:00.748Z,99832.06
2022-12-13T04:28:27.387Z,99827.84
2022-12-13T04:30:54.285Z,99837.53
2022-12-13T04:33:22.262Z,99833.66
2022-12-13T04:35:50.308Z,99825.97
2022-12-13T04:38:17.151Z,99832.28
2022-12-13T04:40:43.777Z,99833.97
2022-12-13T04:43:10.442Z,99826.13
2022-12-13T04:45:37.155Z,99832.97
2022-12-13T04:48:04.081Z,99831.25
2022-12-13T04:50:30.712Z,99833.78
2022-12-13T04:52:57.304Z,99828.03
2022-12-13T04:55:23.888Z,99838.00
2022-12-13T04:57:50.487Z,99835.94
2022-12-13T05:00:17.198Z,99840.25
2022-12-13T05:02:44.063Z,99837.19
2022-12-13T05:05:11.351Z,99836.00
2022-12-13T05:07:42.314Z,99838.59
2022-12-13T05:10:10.356Z,99835.72
2022-12-13T05:12:36.995Z,99831.50
2022-12-13T05:15:03.954Z,99825.63
2022-12-13T05:17:30.585Z,99818.44
2022-12-13T05:19:57.291Z,99826.56
2022-12-13T05:22:23.954Z,99835.53
2022-12-13T05:24:50.599Z,99831.84
2022-12-13T05:27:23.965Z,99831.50
2022-12-13T05:30:03.997Z,99828.75
2022-12-13T05:32:42.751Z,99828.97
2022-12-13T05:35:23.480Z,99822.72
2022-12-13T05:37:55.303Z,99833.41
2022-12-13T05:40:23.407Z,99836.19
2022-12-13T05:42:50.238Z,99831.75
2022-12-13T05:45:20.796Z,99833.28
2022-12-13T05:47:47.725Z,99842.84
2022-12-13T05:50:15.793Z,99838.81
2022-12-13T05:52:43.356Z,99838.75
2022-12-13T05:55:11.382Z,99841.41
2022-12-13T05:57:38.821Z,99848.03
2022-12-13T06:00:07.701Z,99859.78
2022-12-13T06:02:54.810Z,99858.25
2022-12-13T06:05:21.543Z,99855.31
2022-12-13T06:07:52.115Z,99855.28
2022-12-13T06:10:22.097Z,99856.34
2022-12-13T06:12:49.008Z,99863.78
2022-12-13T06:15:22.449Z,99866.16
2022-12-13T06:17:49.536Z,99860.88
2022-12-13T06:20:23.410Z,99859.22
2022-12-13T06:22:52.620Z,99855.06
2022-12-13T06:25:31.542Z,99864.50
2022-12-13T06:28:01.628Z,99867.88
2022-12-13T06:30:31.882Z,99871.47
2022-12-13T06:32:58.567Z,99876.59
2022-12-13T06:35:29.912Z,99881.72
2022-12-13T06:38:00.943Z,99884.22
2022-12-13T06:40:31.976Z,99884.13
2022-12-13T06:42:58.607Z,99882.53
2022-12-13T06:45:25.446Z,99893.69
2022-12-13T06:47:52.273Z,99880.50
2022-12-13T06:50:18.899Z,99893.63
2022-12-13T06:52:48.608Z,99892.91
2022-12-13T06:55:15.443Z,99888.44
2022-12-13T06:57:51.020Z,99895.50
2022-12-13T07:00:22.385Z,99898.38
2022-12-13T07:02:56.093Z,99904.41
2022-12-13T07:05:23.111Z,99906.47
2022-12-13T07:07:49.814Z,99899.91
2022-12-13T07:10:22.641Z,99908.81
2022-12-13T07:12:49.942Z,99907.38
2022-12-13T07:15:16.610Z,99906.91
2022-12-13T07:17:43.281Z,99921.00
2022-12-13T07:20:10.601Z,99909.69
2022-12-13T07:22:44.958Z,99908.75
2022-12-13T07:25:28.441Z,99915.44
2022-12-13T07:28:01.897Z,99924.50
2022-12-13T07:30:30.930Z,99931.69
2022-12-13T07:32:57.534Z,99929.56
2022-12-13T07:35:24.120Z,99930.56
2022-12-13T07:37:50.705Z,99926.59
2022-12-13T07:40:17.303Z,99930.22
2022-12-13T07:42:50.325Z,99936.88
2022-12-13T07:45:17.096Z,99937.94
2022-12-13T07:47:43.805Z,99935.38
2022-12-13T07:50:23.749Z,99934.22
2022-12-13T07:52:52.356Z,99928.63
2022-12-13T07:55:18.950Z,99932.25
2022-12-13T07:57:49.973Z,99934.72
2022-12-13T08:00:16.967Z,99939.41
2022-12-13T08:02:43.550Z,99948.50
2022-12-13T08:05:26.062Z,99943.75
2022-12-13T08:07:53.484Z,99951.88
2022-12-13T08:10:20.170Z,99948.88
2022-12-13T08:12:46.857Z,99955.53
2022-12-13T08:15:16.515Z,99946.56
2022-12-13T08:17:43.370Z,99946.28
2022-12-13T08:20:10.393Z,99945.13
2022-12-13T08:22:37.212Z,99944.59
2022-12-13T08:25:04.170Z,99951.22
2022-12-13T08:27:30.802Z,99951.19
2022-12-13T08:29:57.446Z,99963.28
2022-12-13T08:32:24.427Z,99949.88
2022-12-13T08:34:51.039Z,99953.09
2022-12-13T08:37:18.154Z,99947.13
2022-12-13T08:39:45.145Z,99949.94
2022-12-13T08:42:18.360Z,99955.06
2022-12-13T08:44:51.468Z,99948.00
2022-12-13T08:47:25.882Z,99956.22
2022-12-13T08:49:54.559Z,99955.84
2022-12-13T08:52:22.406Z,99946.22
2022-12-13T08:54:49.006Z,99957.13
2022-12-13T08:57:15.591Z,99947.09
2022-12-13T08:59:42.435Z,99947.84
2022-12-13T09:02:15.560Z,99947.94
2022-12-13T09:04:42.549Z,99942.97
2022-12-13T09:07:09.172Z,99955.63
2022-12-13T09:09:36.998Z,99949.94
2022-12-13T09:12:10.374Z,99951.19
2022-12-13T09:14:45.310Z,99943.91
2022-12-13T09:17:23.750Z,99947.53
2022-12-13T09:19:58.026Z,99937.38
2022-12-13T09:22:33.378Z,99942.91
2022-12-13T09:25:04.047Z,99936.44
2022-12-13T09:27:39.853Z,99934.59
2022-12-13T09:30:08.306Z,99939.00
2022-12-13T09:32:34.926Z,99937.84
2022-12-13T09:35:01.549Z,99934.41
2022-12-13T09:37:29.586Z,99934.88
2022-12-13T09:39:56.195Z,99927.16
2022-12-13T09:42:30.869Z,99933.72
2022-12-13T09:45:06.784Z,99930.88
2022-12-13T09:47:51.523Z,99935.97
2022-12-13T09:50:38.575Z,99933.41
2022-12-13T09:53:11.862Z,99931.66
2022-12-13T09:55:50.780Z,99939.44
2022-12-13T09:58:28.037Z,99930.03
2022-12-13T10:00:56.542Z,99923.16
2022-12-13T10:03:25.572Z,99919.75
2022-12-13T10:06:01.000Z,99919.69
2022-12-13T10:08:35.900Z,99920.53
2022-12-13T10:11:02.774Z,99914.69
2022-12-13T10:13:47.684Z,99917.13
2022-12-13T10:16:23.293Z,99920.03
2022-12-13T10:18:51.403Z,99914.97
2022-12-13T10:21:25.208Z,99909.66
2022-12-13T10:26:39.218Z,99910.97
2022-12-13T10:29:06.863Z,99908.88
2022-12-13T10:31:45.736Z,99903.59
2022-12-13T10:34:35.663Z,99897.31
2022-12-13T10:37:23.813Z,99899.66
2022-12-13T10:39:50.434Z,99892.53
2022-12-13T10:42:22.570Z,99896.81
2022-12-13T10:45:10.924Z,99900.75
2022-12-13T10:47:37.770Z,99894.38
2022-12-13T10:50:05.031Z,99896.72
2022-12-13T10:52:32.761Z,99886.84
2022-12-13T10:55:23.134Z,99889.16
2022-12-13T10:57:59.820Z,99888.53
2022-12-13T11:00:37.467Z,99890.19
2022-12-13T11:03:04.947Z,99886.69
2022-12-13T11:05:36.871Z,99887.13
2022-12-13T11:08:32.991Z,99884.91
2022-12-13T11:11:05.163Z,99887.34
2022-12-13T11:13:35.567Z,99885.16
2022-12-13T11:16:03.923Z,99873.41
2022-12-13T11:18:36.414Z,99871.63
2022-12-13T11:21:05.361Z,99869.91
2022-12-13T11:23:37.573Z,99868.25
2022-12-13T11:26:24.107Z,99863.94
2022-12-13T11:28:51.347Z,99857.34
2022-12-13T11:31:59.154Z,99856.50
2022-12-13T11:34:44.143Z,99852.97
2022-12-13T11:37:40.932Z,99848.88
2022-12-13T11:40:25.829Z,99858.63
2022-12-13T11:43:41.523Z,99865.41
2022-12-13T11:46:19.904Z,99860.16
2022-12-13T11:49:03.243Z,99857.00
2022-12-13T11:52:10.297Z,99856.00
2022-12-13T11:55:15.108Z,99856.19
2022-12-13T11:57:46.348Z,99855.34
2022-12-13T12:00:33.882Z,99858.91
2022-12-13T12:03:14.370Z,99848.50
2022-12-13T12:05:47.742Z,99847.31
2022-12-13T12:08:48.043Z,99848.13
2022-12-13T12:11:23.583Z,99857.88
2022-12-13T12:14:15.207Z,99852.13
2022-12-13T12:17:17.753Z,99849.97
2022-12-13T12:19:49.488Z,99855.22
2022-12-13T12:22:34.094Z,99854.31
2022-12-13T12:25:12.839Z,99853.63
2022-12-13T12:27:48.244Z,99856.22
2022-12-13T12:30:23.188Z,99855.44
2022-12-13T12:32:51.677Z,99849.25
2022-12-13T12:35:27.865Z,99841.56
2022-12-13T12:38:34.744Z,99846.84
2022-12-13T12:41:28.044Z,99848.66
2022-12-13T12:44:21.406Z,99844.13
2022-12-13T12:47:32.644Z,99845.03
2022-12-13T12:49:57.807Z,99835.66
2022-12-13T12:52:42.681Z,99836.50
2022-12-13T12:55:15.260Z,99846.91
2022-12-13T12:58:03.688Z,99849.13
2022-12-13T13:00:47.602Z,99851.13
2022-12-13T13:03:24.201Z,99857.28
2022-12-13T13:06:05.276Z,99866.59
2022-12-13T13:08:53.439Z,99852.91
2022-12-13T13:11:25.512Z,99865.78
2022-12-13T13:14:01.794Z,99865.81
2022-12-13T13:16:39.950Z,99867.38
2022-12-13T13:19:12.628Z,99863.16
2022-12-13T13:22:01.469Z,99865.91
2022-12-13T13:24:31.613Z,99871.00
2022-12-13T13:27:19.885Z,99876.97
2022-12-13T13:29:46.743Z,99881.34
2022-12-13T13:32:29.370Z,99872.78
2022-12-13T13:35:28.424Z,99879.50
2022-12-13T13:37:55.863Z,99884.56
2022-12-13T13:40:34.477Z,99881.09
2022-12-13T13:43:06.870Z,99885.50
2022-12-13T13:45:51.592Z,99895.63
2022-12-13T13:48:42.484Z,99897.97
2022-12-13T13:51:18.241Z,99899.09
2022-12-13T13:54:31.180Z,99890.81
2022-12-13T13:57:16.397Z,99899.75
2022-12-13T13:59:45.779Z,99893.31
2022-12-13T14:02:36.768Z,99893.03
2022-12-13T14:05:25.190Z,99898.13
2022-12-13T14:08:03.852Z,99896.66
2022-12-13T14:11:01.462Z,99900.00
2022-12-13T14:14:06.011Z,99903.75
2022-12-13T14:16:48.867Z,99897.44
2022-12-13T14:20:05.376Z,99893.06
2022-12-13T14:22:49.762Z,99892.03
2022-12-13T14:25:52.548Z,99892.19
2022-12-13T14:28:50.654Z,99898.22
2022-12-13T14:31:24.387Z,99886.72
2022-12-13T14:33:56.403Z,99889.97
2022-12-13T14:36:32.316Z,99887.47
2022-12-13T14:39:03.665Z,99892.63
2022-12-13T14:41:30.393Z,99895.34
2022-12-13T14:44:29.849Z,99891.91
2022-12-13T14:46:57.527Z,99884.59
2022-12-13T14:49:26.969Z,99902.56
2022-12-13T14:52:03.406Z,99901.66
2022-12-13T14:54:40.833Z,99895.72
2022-12-13T14:57:16.798Z,99900.09
2022-12-13T14:59:50.457Z,99888.88
2022-12-13T15:02:30.932Z,99907.75
2022-12-13T15:05:04.585Z,99905.25
2022-12-13T15:07:39.933Z,99905.25
2022-12-13T15:10:26.823Z,99911.16
2022-12-13T15:12:55.146Z,99900.72
2022-12-13T15:15:37.845Z,99912.81
2022-12-13T15:18:24.815Z,99930.03
2022-12-13T15:20:53.515Z,99928.03
2022-12-13T15:23:23.047Z,99925.47
2022-12-13T15:26:08.668Z,99932.44
2022-12-13T15:28:39.513Z,99927.28
2022-12-13T15:31:07.028Z,99928.09
2022-12-13T15:33:37.931Z,99933.97
2022-12-13T15:36:15.800Z,99936.53
2022-12-13T15:38:54.788Z,99933.88
2022-12-13T15:41:29.210Z,99934.56
2022-12-13T15:44:16.042Z,99934.81
2022-12-13T15:46:45.599Z,99938.47
2022-12-13T15:49:24.461Z,99929.13
2022-12-13T15:52:00.077Z,99943.44
2022-12-13T15:54:26.918Z,99944.16
2022-12-13T15:57:21.689Z,99945.03
2022-12-13T15:59:48.878Z,99947.28
2022-12-13T16:02:21.238Z,99938.75
2022-12-13T16:04:47.942Z,99950.78
2022-12-13T16:07:43.967Z,99954.88
2022-12-13T16:10:18.696Z,99953.28
2022-12-13T16:12:49.944Z,99962.63
2022-12-13T16:15:29.180Z,99965.91
2022-12-13T16:18:27.960Z,99959.22
2022-12-13T16:20:55.319Z,99956.59
2022-12-13T16:23:27.869Z,99958.25
2022-12-13T16:25:54.743Z,99948.81
2022-12-13T16:28:21.330Z,99951.16
2022-12-13T16:30:52.875Z,99952.78
2022-12-13T16:33:26.848Z,99951.91
2022-12-13T16:35:57.005Z,99948.38
2022-12-13T16:38:26.626Z,99961.28
2022-12-13T16:40:55.610Z,99944.97
2022-12-13T16:43:32.853Z,99939.75
2022-12-13T16:46:02.149Z,99941.53
2022-12-13T16:48:49.113Z,99950.84
2022-12-13T16:51:15.688Z,99956.75
2022-12-13T16:53:42.267Z,99955.00
2022-12-13T16:56:08.923Z,99955.06
2022-12-13T16:58:35.521Z,99950.75
2022-12-13T17:01:02.171Z,99935.25
2022-12-13T17:03:34.785Z,99943.78
2022-12-13T17:06:01.758Z,99944.84
2022-12-13T17:08:28.467Z,99937.13
2022-12-13T17:10:58.258Z,99937.94
2022-12-13T17:13:25.883Z,99938.59
2022-12-13T17:15:59.153Z,99942.78
2022-12-13T17:18:27.630Z,99948.53
2022-12-13T17:20:58.580Z,99942.56
2022-12-13T17:23:26.647Z,99957.19
2022-12-13T17:25:58.244Z,99944.28
2022-12-13T17:28:25.767Z,99955.22
2022-12-13T17:30:55.014Z,99957.81
2022-12-13T17:33:22.234Z,99957.13
2022-12-13T17:35:48.960Z,99961.31
2022-12-13T17:38:15.549Z,99959.63
2022-12-13T17:40:42.191Z,99959.75
2022-12-13T17:43:27.222Z,99959.97
2022-12-13T17:46:07.623Z,99965.03
2022-12-13T17:48:40.214Z,99957.06
2022-12-13T17:51:09.179Z,99957.00
2022-12-13T17:53:36.391Z,99959.53
2022-12-13T17:56:05.504Z,99956.13
2022-12-13T17:58:32.088Z,99957.63
2022-12-13T18:00:59.442Z,99969.88
2022-12-13T18:03:26.589Z,99966.31
2022-12-13T18:05:58.069Z,99960.72
2022-12-13T18:08:25.296Z,99952.72
2022-12-13T18:11:23.932Z,99950.78
2022-12-13T18:13:45.758Z,99949.06
2022-12-13T18:16:14.835Z,99943.44
2022-12-13T18:18:42.030Z,99944.34
2022-12-13T18:21:21.660Z,99941.91
2022-12-13T18:23:55.017Z,99936.94
2022-12-13T18:26:22.522Z,99936.97
2022-12-13T18:28:49.109Z,99944.50
2022-12-13T18:31:18.297Z,99951.59
2022-12-13T18:33:47.859Z,99944.38
2022-12-13T18:36:15.539Z,99943.34
2022-12-13T18:38:43.041Z,99946.16
2022-12-13T18:41:11.745Z,99950.22
2022-12-13T18:43:38.413Z,99958.69
2022-12-13T18:46:05.585Z,99957.09
2022-12-13T18:48:32.384Z,99964.06
2022-12-13T18:51:03.846Z,99967.50
2022-12-13T18:53:33.517Z,99965.91
2022-12-13T18:56:02.248Z,99956.69
2022-12-13T18:58:28.836Z,99954.69
2022-12-13T19:01:02.524Z,99948.28
2022-12-13T19:03:29.976Z,99948.69
2022-12-13T19:05:57.239Z,99944.16
2022-12-13T19:08:24.213Z,99946.91
2022-12-13T19:10:50.802Z,99939.50
2022-12-13T19:13:17.398Z,99939.13
2022-12-13T19:15:44.090Z,99941.97
2022-12-13T19:18:10.803Z,99950.63
2022-12-13T19:20:37.495Z,99959.84
2022-12-13T19:23:04.132Z,99957.66
2022-12-13T19:25:30.824Z,99950.91
2022-12-13T19:27:57.413Z,99953.22
2022-12-13T19:30:24.048Z,99955.22
2022-12-13T19:32:50.656Z,99958.88
2022-12-13T19:35:17.337Z,99949.47
2022-12-13T19:37:43.961Z,99956.66
2022-12-13T19:40:10.996Z,99959.44
2022-12-13T19:42:37.559Z,99959.38
2022-12-13T19:45:04.374Z,99954.69
2022-12-13T19:47:30.966Z,99950.75
2022-12-13T19:49:57.556Z,99948.06
2022-12-13T19:52:24.203Z,99953.28
2022-12-13T19:54:50.797Z,99958.44
2022-12-13T19:57:17.443Z,99958.63
2022-12-13T19:59:44.060Z,99953.44
2022-12-13T20:02:14.530Z,99957.59
2022-12-13T20:04:41.140Z,99952.41
2022-12-13T20:07:07.745Z,99948.69
2022-12-13T20:09:34.326Z,99951.13
2022-12-13T20:12:01.992Z,99954.03
2022-12-13T20:14:28.599Z,99952.34
2022-12-13T20:16:55.177Z,99947.06
2022-12-13T20:19:23.316Z,99954.19
2022-12-13T20:21:54.988Z,99956.91
2022-12-13T20:24:23.458Z,99962.69
2022-12-13T20:26:50.026Z,99958.81
2022-12-13T20:29:18.171Z,99966.53
2022-12-13T20:31:48.350Z,99964.00
2022-12-13T20:34:15.917Z,99967.06
2022-12-13T20:36:42.819Z,99964.78
2022-12-13T20:39:11.805Z,99967.81
2022-12-13T20:41:38.387Z,99965.94
2022-12-13T20:44:06.897Z,99971.06
2022-12-13T20:46:34.185Z,99969.75
2022-12-13T20:49:03.330Z,99976.66
2022-12-13T20:51:31.950Z,99975.09
2022-12-13T20:53:58.777Z,99966.91
2022-12-13T20:56:31.132Z,99965.19
2022-12-13T20:58:57.696Z,99973.38
2022-12-13T21:01:29.048Z,99964.41
2022-12-13T21:03:58.132Z,99962.06
2022-12-13T21:06:24.731Z,99964.13
2022-12-13T21:08:51.322Z,99968.50
2022-12-13T21:11:19.915Z,99965.75
2022-12-13T21:13:47.287Z,99965.44
2022-12-13T21:16:15.167Z,99958.19
2022-12-13T21:18:41.844Z,99953.94
2022-12-13T21:21:09.470Z,99953.94
2022-12-13T21:23:36.902Z,99961.34
2022-12-13T21:26:03.609Z,99962.66
2022-12-13T21:28:30.493Z,99962.00
2022-12-13T21:31:01.914Z,99959.75
2022-12-13T21:33:29.343Z,99953.81
2022-12-13T21:35:56.667Z,99951.19
2022-12-13T21:38:23.280Z,99952.28
2022-12-13T21:40:50.639Z,99951.28
2022-12-13T21:43:17.333Z,99936.28
2022-12-13T21:45:44.537Z,99940.94
2022-12-13T21:48:13.885Z,99940.09
2022-12-13T21:50:40.457Z,99932.22
2022-12-13T21:53:07.036Z,99931.22
2022-12-13T21:55:40.695Z,99926.03
2022-12-13T21:58:08.845Z,99925.50
2022-12-13T22:00:36.564Z,99933.28
2022-12-13T22:03:04.211Z,99924.41
2022-12-13T22:05:30.783Z,99935.47
2022-12-13T22:07:57.370Z,99928.66
2022-12-13T22:10:23.969Z,99933.72
2022-12-13T22:12:50.602Z,99923.94
2022-12-13T22:15:17.284Z,99915.75
2022-12-13T22:17:43.874Z,99927.50
2022-12-13T22:20:12.692Z,99929.25
2022-12-13T22:22:40.663Z,99927.47
2022-12-13T22:25:07.967Z,99925.78
2022-12-13T22:27:34.626Z,99916.00
2022-12-13T22:30:01.231Z,99916.13
2022-12-13T22:32:31.028Z,99905.03
2022-12-13T22:34:57.828Z,99907.50
2022-12-13T22:37:24.790Z,99902.34
2022-12-13T22:39:51.466Z,99897.94
2022-12-13T22:42:18.075Z,99899.88
2022-12-13T22:44:44.850Z,99897.00
2022-12-13T22:47:11.429Z,99895.09
2022-12-13T22:49:38.134Z,99896.63
2022-12-13T22:52:04.950Z,99892.41
2022-12-13T22:54:31.552Z,99893.59
2022-12-13T22:56:58.113Z,99891.00
2022-12-13T22:59:24.711Z,99891.78
2022-12-13T23:01:51.500Z,99894.72
2022-12-13T23:04:18.356Z,99896.06
2022-12-13T23:06:44.957Z,99876.44
2022-12-13T23:09:12.954Z,99883.78
2022-12-13T23:11:39.709Z,99878.81
2022-12-13T23:14:09.517Z,99877.47
2022-12-13T23:16:36.861Z,99882.78
2022-12-13T23:19:39.839Z,99887.56
2022-12-13T23:21:53.067Z,99879.38
2022-12-13T23:24:19.799Z,99882.19
2022-12-13T23:26:46.443Z,99881.03
2022-12-13T23:29:13.144Z,99881.44
2022-12-13T23:31:42.343Z,99883.25
2022-12-13T23:34:15.266Z,99887.25
2022-12-13T23:36:41.871Z,99890.53
2022-12-13T23:39:08.485Z,99885.16
2022-12-13T23:41:35.536Z,99883.31
2022-12-13T23:44:02.157Z,99878.56
2022-12-13T23:46:34.629Z,99880.75
2022-12-13T23:49:03.225Z,99877.06
2022-12-13T23:51:30.025Z,99880.94
2022-12-13T23:53:56.633Z,99886.75
2022-12-13T23:56:23.680Z,99886.41
2022-12-13T23:58:50.358Z,99884.81
